Time;durP1;ratioP1;P1;durP2;ratioP2;P2;SDS_P1;SDS_P2;PMS_P1;PMS_P2;Temp;Humidity;BMP_temperature;BMP_pressure;BME280_temperature;BME280_humidity;BME280_pressure;Samples;Min_cycle;Max_cycle;Signal;HPM_P1;HPM_P2
2021/05/08 00:01:37;;;;;;;5.05;3.17;;;6.40;99.90;;;;;;5029465;28;20100;-46
2021/05/08 00:04:04;;;;;;;5.13;3.10;;;6.40;99.90;;;;;;5029851;28;20021;-45
2021/05/08 00:06:32;;;;;;;5.97;3.97;;;6.40;99.90;;;;;;5029271;28;20017;-46
2021/05/08 00:08:58;;;;;;;5.93;3.03;;;6.30;99.90;;;;;;5027539;28;20040;-46
2021/05/08 00:11:23;;;;;;;6.22;3.80;;;6.30;99.90;;;;;;5029342;28;20120;-45
2021/05/08 00:13:49;;;;;;;5.43;3.47;;;6.20;99.90;;;;;;5029358;28;20083;-45
2021/05/08 00:16:14;;;;;;;6.30;3.88;;;6.20;99.90;;;;;;5029293;28;20108;-45
2021/05/08 00:18:40;;;;;;;6.22;2.97;;;6.20;99.90;;;;;;5028569;28;20436;-46
2021/05/08 00:21:05;;;;;;;7.35;3.55;;;6.10;99.90;;;;;;5029315;28;20037;-45
2021/05/08 00:23:31;;;;;;;6.00;3.40;;;6.10;99.90;;;;;;5028596;28;20623;-46
2021/05/08 00:25:56;;;;;;;6.72;3.80;;;6.10;99.90;;;;;;5028999;28;20166;-46
2021/05/08 00:28:22;;;;;;;8.52;4.03;;;6.10;99.90;;;;;;5028518;28;20037;-46
2021/05/08 00:30:48;;;;;;;9.70;4.00;;;6.00;99.90;;;;;;5028755;28;20033;-45
2021/05/08 00:33:13;;;;;;;6.15;3.55;;;6.00;99.90;;;;;;5028863;28;20057;-46
2021/05/08 00:35:39;;;;;;;6.72;3.75;;;6.00;99.90;;;;;;5028812;28;20550;-45
2021/05/08 00:38:04;;;;;;;7.28;3.28;;;6.00;99.90;;;;;;5028120;28;20040;-45
2021/05/08 00:40:30;;;;;;;4.38;3.17;;;6.00;99.90;;;;;;5028767;28;20119;-45
2021/05/08 00:42:55;;;;;;;6.25;3.95;;;6.00;99.90;;;;;;5028786;28;20035;-47
2021/05/08 00:45:21;;;;;;;7.95;3.85;;;5.90;99.90;;;;;;5028712;28;20426;-45
2021/05/08 00:47:48;;;;;;;5.25;3.75;;;5.80;99.90;;;;;;5028426;28;20060;-47
2021/05/08 00:50:18;;;;;;;11.73;3.85;;;5.80;99.90;;;;;;5029107;28;20030;-45
2021/05/08 00:52:44;;;;;;;9.77;4.20;;;5.80;99.90;;;;;;5027271;28;20082;-45
2021/05/08 00:55:11;;;;;;;9.30;4.88;;;5.80;99.90;;;;;;5027210;28;20037;-49
2021/05/08 00:57:37;;;;;;;6.80;4.00;;;5.80;99.90;;;;;;5027625;28;20064;-45
2021/05/08 01:00:06;;;;;;;7.88;4.03;;;5.70;99.90;;;;;;5028220;28;20028;-44
2021/05/08 01:02:32;;;;;;;8.73;3.88;;;5.70;99.90;;;;;;5028783;28;20388;-44
2021/05/08 01:04:57;;;;;;;12.65;4.10;;;5.70;99.90;;;;;;5028258;28;20028;-45
2021/05/08 01:07:23;;;;;;;8.27;3.88;;;5.60;99.90;;;;;;5027335;28;20026;-46
2021/05/08 01:09:50;;;;;;;9.05;4.25;;;5.60;99.90;;;;;;5028625;28;20029;-45
2021/05/08 01:12:16;;;;;;;6.13;3.83;;;5.70;99.90;;;;;;5027847;28;20038;-45
2021/05/08 01:14:42;;;;;;;6.80;3.97;;;5.70;99.90;;;;;;5028201;28;20021;-45
2021/05/08 01:17:07;;;;;;;6.53;3.83;;;5.70;99.90;;;;;;5028033;28;20018;-45
2021/05/08 01:19:33;;;;;;;8.90;4.15;;;5.70;99.90;;;;;;5027094;28;20036;-45
2021/05/08 01:22:00;;;;;;;9.88;4.20;;;5.70;99.90;;;;;;5026620;28;20108;-44
2021/05/08 01:24:26;;;;;;;8.80;3.83;;;5.70;99.90;;;;;;5028241;28;20029;-45
2021/05/08 01:26:51;;;;;;;7.05;4.28;;;5.70;99.90;;;;;;5028141;28;20022;-48
2021/05/08 01:29:16;;;;;;;11.82;4.18;;;5.60;99.90;;;;;;5026945;28;20037;-45
2021/05/08 01:31:42;;;;;;;6.15;3.30;;;5.70;99.90;;;;;;5027831;28;20036;-47
2021/05/08 01:34:08;;;;;;;10.48;4.28;;;5.70;99.90;;;;;;5027894;28;20346;-44
2021/05/08 01:36:33;;;;;;;6.55;4.00;;;5.60;99.90;;;;;;5027490;28;20129;-45
2021/05/08 01:39:06;;;;;;;5.20;4.15;;;5.60;99.90;;;;;;5025878;28;20505;-45
2021/05/08 01:41:32;;;;;;;10.35;4.65;;;5.60;99.90;;;;;;5028050;28;20025;-45
2021/05/08 01:43:57;;;;;;;11.40;4.75;;;5.60;99.90;;;;;;5028078;28;20083;-44
2021/05/08 01:46:23;;;;;;;6.53;3.97;;;5.60;99.90;;;;;;5028375;28;20071;-45
2021/05/08 01:48:48;;;;;;;6.75;4.32;;;5.70;99.90;;;;;;5027162;28;20023;-46
2021/05/08 01:51:14;;;;;;;6.15;4.15;;;5.60;99.90;;;;;;5027109;28;20120;-44
2021/05/08 01:53:40;;;;;;;5.88;3.45;;;5.60;99.90;;;;;;5027171;28;20104;-45
2021/05/08 01:56:06;;;;;;;9.57;4.90;;;5.60;99.90;;;;;;5026921;28;20029;-47
2021/05/08 01:58:32;;;;;;;8.07;4.30;;;5.60;99.90;;;;;;5026490;28;20501;-44
2021/05/08 02:00:58;;;;;;;5.47;4.20;;;5.60;99.90;;;;;;5026995;28;20032;-45
2021/05/08 02:03:24;;;;;;;11.00;4.30;;;5.60;99.90;;;;;;5027051;28;20359;-44
2021/05/08 02:05:51;;;;;;;6.55;4.43;;;5.50;99.90;;;;;;5026722;28;20346;-44
2021/05/08 02:08:17;;;;;;;7.60;4.13;;;5.60;99.90;;;;;;5026858;28;20030;-43
2021/05/08 02:10:44;;;;;;;10.57;4.65;;;5.50;99.90;;;;;;5027026;28;20022;-44
2021/05/08 02:13:11;;;;;;;8.07;4.35;;;5.60;99.90;;;;;;5027406;28;20071;-44
2021/05/08 02:15:37;;;;;;;8.40;4.57;;;5.60;99.90;;;;;;5026864;28;20117;-44
2021/05/08 02:18:04;;;;;;;10.50;4.45;;;5.60;99.90;;;;;;5026101;28;20022;-46
2021/05/08 02:20:32;;;;;;;7.00;4.25;;;5.60;99.90;;;;;;5027531;28;20026;-44
2021/05/08 02:23:00;;;;;;;9.40;4.32;;;5.60;99.90;;;;;;5024479;28;20018;-44
2021/05/08 02:25:26;;;;;;;8.73;4.00;;;5.60;99.90;;;;;;5027194;28;20373;-44
2021/05/08 02:27:52;;;;;;;7.38;3.30;;;5.60;99.90;;;;;;5027016;28;20623;-44
2021/05/08 02:30:27;;;;;;;7.25;4.05;;;5.60;99.90;;;;;;5024508;28;20053;-44
2021/05/08 02:32:53;;;;;;;6.40;4.28;;;5.70;99.90;;;;;;5030955;28;20038;-44
2021/05/08 02:35:20;;;;;;;7.75;4.28;;;5.70;99.90;;;;;;5030493;28;20037;-44
2021/05/08 02:37:46;;;;;;;9.48;4.15;;;5.80;99.90;;;;;;5028931;28;20037;-44
2021/05/08 02:40:14;;;;;;;8.88;4.45;;;5.80;99.90;;;;;;5030181;28;20576;-45
2021/05/08 02:42:41;;;;;;;8.57;4.65;;;5.80;99.90;;;;;;5027478;28;20072;-44
2021/05/08 02:45:08;;;;;;;9.80;5.20;;;5.80;99.90;;;;;;5029988;28;20051;-45
2021/05/08 02:47:36;;;;;;;6.43;4.45;;;5.80;99.90;;;;;;5026764;28;20442;-45
2021/05/08 02:50:01;;;;;;;6.75;4.30;;;5.80;99.90;;;;;;5030504;28;20017;-44
2021/05/08 02:52:27;;;;;;;8.65;4.70;;;5.80;99.90;;;;;;5030456;28;20076;-44
2021/05/08 02:54:52;;;;;;;7.63;4.53;;;5.80;99.90;;;;;;5030696;28;20033;-44
2021/05/08 02:57:18;;;;;;;6.88;4.32;;;5.80;99.90;;;;;;5030242;28;20417;-45
2021/05/08 02:59:43;;;;;;;9.68;4.13;;;5.80;99.90;;;;;;5029993;28;20045;-44
2021/05/08 03:02:09;;;;;;;7.80;4.05;;;5.80;99.90;;;;;;5030683;28;20032;-45
2021/05/08 03:04:35;;;;;;;9.15;4.57;;;5.90;99.90;;;;;;5029546;28;20112;-45
2021/05/08 03:07:02;;;;;;;7.45;4.90;;;5.80;99.90;;;;;;5030422;28;20169;-44
2021/05/08 03:09:28;;;;;;;8.70;3.72;;;5.80;99.90;;;;;;5027814;28;20030;-45
2021/05/08 03:11:54;;;;;;;7.10;4.05;;;5.80;99.90;;;;;;5030501;28;20029;-44
2021/05/08 03:14:20;;;;;;;7.82;4.32;;;5.80;99.90;;;;;;5030393;28;20087;-45
2021/05/08 03:16:45;;;;;;;6.60;4.03;;;5.80;99.90;;;;;;5030787;28;20029;-46
2021/05/08 03:19:11;;;;;;;9.13;4.85;;;5.80;99.90;;;;;;5028114;28;20036;-45
2021/05/08 03:21:37;;;;;;;12.23;4.13;;;5.80;99.90;;;;;;5029947;28;20026;-46
2021/05/08 03:24:04;;;;;;;6.85;4.57;;;5.80;99.90;;;;;;5030191;28;20024;-46
2021/05/08 03:26:30;;;;;;;12.23;4.75;;;5.80;99.90;;;;;;5030157;28;20033;-44
2021/05/08 03:28:57;;;;;;;10.05;4.20;;;5.80;99.90;;;;;;5026866;28;20025;-45
2021/05/08 03:31:22;;;;;;;8.65;4.38;;;5.80;99.90;;;;;;5029928;28;20061;-44
2021/05/08 03:33:48;;;;;;;8.05;4.72;;;5.80;99.90;;;;;;5029209;28;20079;-45
2021/05/08 03:36:14;;;;;;;7.65;4.82;;;5.80;99.90;;;;;;5030531;28;20060;-45
2021/05/08 03:38:39;;;;;;;6.03;4.88;;;5.80;99.90;;;;;;5029657;28;20057;-45
2021/05/08 03:41:05;;;;;;;8.18;4.57;;;5.70;99.90;;;;;;5029671;28;20030;-45
2021/05/08 03:43:30;;;;;;;9.77;4.75;;;5.80;99.90;;;;;;5028220;28;20034;-45
2021/05/08 03:45:56;;;;;;;6.72;4.93;;;5.80;99.90;;;;;;5029700;28;20037;-45
2021/05/08 03:48:23;;;;;;;7.57;4.75;;;5.80;99.90;;;;;;5027902;28;20029;-45
2021/05/08 03:50:51;;;;;;;10.85;5.80;;;5.80;99.90;;;;;;5029672;28;20530;-45
2021/05/08 03:53:17;;;;;;;9.68;5.43;;;5.80;99.90;;;;;;5029029;28;20067;-46
2021/05/08 03:55:44;;;;;;;10.57;5.70;;;5.80;99.90;;;;;;5028861;28;20021;-45
2021/05/08 03:58:09;;;;;;;8.60;4.93;;;5.90;99.90;;;;;;5028798;28;20021;-47
2021/05/08 04:00:36;;;;;;;7.25;5.40;;;5.80;99.90;;;;;;5029130;28;20028;-43
2021/05/08 04:03:02;;;;;;;12.30;5.28;;;5.80;99.90;;;;;;5026466;28;20033;-44
2021/05/08 04:05:29;;;;;;;9.68;5.18;;;5.80;99.90;;;;;;5028954;28;20104;-44
2021/05/08 04:07:55;;;;;;;13.65;5.47;;;5.80;99.90;;;;;;5028000;28;20021;-43
2021/05/08 04:10:20;;;;;;;11.57;5.65;;;5.80;99.90;;;;;;5027529;28;20493;-44
2021/05/08 04:12:46;;;;;;;8.02;5.38;;;5.80;99.90;;;;;;5028602;28;20029;-44
2021/05/08 04:15:11;;;;;;;9.10;6.10;;;5.80;99.90;;;;;;5028828;28;20021;-44
2021/05/08 04:17:37;;;;;;;12.30;6.25;;;5.70;99.90;;;;;;5028532;28;20045;-44
2021/05/08 04:20:03;;;;;;;9.73;5.20;;;5.70;99.90;;;;;;5028798;28;20083;-44
2021/05/08 04:22:29;;;;;;;11.60;5.88;;;5.70;99.90;;;;;;5028487;28;20034;-44
2021/05/08 04:24:54;;;;;;;7.68;5.22;;;5.70;99.90;;;;;;5028981;28;20104;-44
2021/05/08 04:27:20;;;;;;;7.60;5.75;;;5.60;99.90;;;;;;5028321;28;20119;-44
2021/05/08 04:29:45;;;;;;;13.60;6.35;;;5.60;99.90;;;;;;5028051;28;20036;-45
2021/05/08 04:32:11;;;;;;;12.85;6.50;;;5.60;99.90;;;;;;5028416;28;20443;-45
2021/05/08 04:34:36;;;;;;;9.55;5.75;;;5.60;99.90;;;;;;5028279;28;20084;-44
2021/05/08 04:37:02;;;;;;;11.82;6.05;;;5.60;99.90;;;;;;5028317;28;20017;-44
2021/05/08 04:39:27;;;;;;;12.45;7.07;;;5.60;99.90;;;;;;5027506;28;20609;-43
2021/05/08 04:41:54;;;;;;;13.02;5.65;;;5.60;99.90;;;;;;5026867;28;20028;-46
2021/05/08 04:44:19;;;;;;;8.45;6.47;;;5.60;99.90;;;;;;5028091;28;20021;-44
2021/05/08 04:46:47;;;;;;;8.93;6.40;;;5.60;99.90;;;;;;5028319;28;20052;-43
2021/05/08 04:49:13;;;;;;;22.48;6.72;;;5.70;99.90;;;;;;5026796;28;20411;-44
2021/05/08 04:51:38;;;;;;;8.90;6.82;;;5.70;99.90;;;;;;5028925;28;20080;-44
2021/05/08 04:54:04;;;;;;;12.93;7.00;;;5.70;99.90;;;;;;5026546;28;20025;-44
2021/05/08 04:56:29;;;;;;;11.23;6.88;;;5.70;99.90;;;;;;5028881;28;20380;-45
2021/05/08 04:58:55;;;;;;;9.02;7.10;;;5.70;99.90;;;;;;5027783;28;20033;-44
2021/05/08 05:01:20;;;;;;;12.48;7.70;;;5.70;99.90;;;;;;5028286;28;20033;-44
2021/05/08 05:03:46;;;;;;;11.20;7.22;;;5.80;99.90;;;;;;5027003;28;20029;-44
2021/05/08 05:06:11;;;;;;;12.60;7.50;;;5.80;99.90;;;;;;5028307;28;20057;-44
2021/05/08 05:08:37;;;;;;;11.82;6.85;;;5.80;99.90;;;;;;5026541;28;20025;-44
2021/05/08 05:11:02;;;;;;;11.45;7.10;;;5.90;99.90;;;;;;5026234;28;20073;-44
2021/05/08 05:13:28;;;;;;;13.25;7.50;;;5.90;99.90;;;;;;5025873;28;20475;-44
2021/05/08 05:15:53;;;;;;;15.48;8.77;;;6.00;99.90;;;;;;5027658;28;20030;-44
2021/05/08 05:18:19;;;;;;;13.43;8.73;;;6.00;99.90;;;;;;5026981;28;20041;-44
2021/05/08 05:20:45;;;;;;;10.25;7.65;;;6.00;99.90;;;;;;5025107;28;20053;-44
2021/05/08 05:23:11;;;;;;;12.77;8.35;;;6.10;99.90;;;;;;5027566;28;20044;-44
2021/05/08 05:25:37;;;;;;;11.05;8.52;;;6.10;99.90;;;;;;5027358;28;20036;-43
2021/05/08 05:28:03;;;;;;;19.20;9.40;;;6.20;99.90;;;;;;5026610;28;20479;-45
2021/05/08 05:30:29;;;;;;;14.15;8.95;;;6.20;99.90;;;;;;5026063;28;20025;-46
2021/05/08 05:32:55;;;;;;;15.52;11.00;;;6.30;99.90;;;;;;5027837;28;20241;-44
2021/05/08 05:35:20;;;;;;;14.70;10.50;;;6.30;99.90;;;;;;5027430;28;20081;-44
2021/05/08 05:37:46;;;;;;;12.57;10.00;;;6.40;99.90;;;;;;5026936;28;20044;-44
2021/05/08 05:40:12;;;;;;;14.82;10.57;;;6.40;99.90;;;;;;5026343;28;20132;-45
2021/05/08 05:42:39;;;;;;;20.50;11.50;;;6.40;99.90;;;;;;5027117;28;20060;-45
2021/05/08 05:45:08;;;;;;;14.75;10.88;;;6.50;99.90;;;;;;5026786;28;20026;-45
2021/05/08 05:47:33;;;;;;;16.23;10.48;;;6.50;99.90;;;;;;5026836;28;20165;-44
2021/05/08 05:49:59;;;;;;;15.40;9.75;;;6.60;99.90;;;;;;5027719;28;20013;-44
2021/05/08 05:52:25;;;;;;;16.77;11.68;;;6.60;99.90;;;;;;5026879;28;20017;-44
2021/05/08 05:54:51;;;;;;;20.63;11.90;;;6.50;99.90;;;;;;5027018;28;20021;-44
2021/05/08 05:57:17;;;;;;;18.80;11.73;;;6.60;99.90;;;;;;5026408;28;20044;-45
2021/05/08 05:59:44;;;;;;;19.58;11.50;;;6.70;99.90;;;;;;5027201;28;20120;-45
2021/05/08 06:02:10;;;;;;;18.88;10.93;;;6.70;99.90;;;;;;5024617;28;20395;-45
2021/05/08 06:04:36;;;;;;;16.98;11.02;;;6.80;99.90;;;;;;5027204;28;20029;-45
2021/05/08 06:07:02;;;;;;;16.50;10.60;;;6.80;99.90;;;;;;5026113;28;20029;-44
2021/05/08 06:09:28;;;;;;;18.35;10.45;;;6.90;99.90;;;;;;5024973;28;20310;-45
2021/05/08 06:11:55;;;;;;;16.77;10.80;;;6.90;99.90;;;;;;5028458;28;20113;-45
2021/05/08 06:14:21;;;;;;;17.10;10.18;;;7.00;99.90;;;;;;5028917;28;20032;-44
2021/05/08 06:16:47;;;;;;;14.00;10.43;;;7.00;99.90;;;;;;5029112;28;20048;-44
2021/05/08 06:19:13;;;;;;;14.70;9.90;;;7.10;99.90;;;;;;5028052;28;20460;-44
2021/05/08 06:21:39;;;;;;;15.27;10.05;;;7.20;99.90;;;;;;5028389;28;20629;-44
2021/05/08 06:24:09;;;;;;;18.05;11.52;;;7.20;99.90;;;;;;5027343;28;20023;-44
2021/05/08 06:26:36;;;;;;;16.95;10.77;;;7.30;99.90;;;;;;5027570;28;20036;-44
2021/05/08 06:29:02;;;;;;;18.58;10.95;;;7.30;99.90;;;;;;5026875;28;20104;-44
2021/05/08 06:31:28;;;;;;;14.73;10.10;;;7.40;99.90;;;;;;5028389;28;20041;-45
2021/05/08 06:33:55;;;;;;;13.95;9.90;;;7.50;99.90;;;;;;5027360;28;20529;-44
2021/05/08 06:36:20;;;;;;;13.73;9.38;;;7.60;99.90;;;;;;5027968;28;20057;-45
2021/05/08 06:38:46;;;;;;;11.90;9.38;;;7.70;99.90;;;;;;5027132;28;20467;-44
2021/05/08 06:41:11;;;;;;;21.70;9.73;;;7.70;99.90;;;;;;5026738;28;20047;-45
2021/05/08 06:43:36;;;;;;;12.35;10.07;;;7.80;99.90;;;;;;5027969;28;20108;-45
2021/05/08 06:46:02;;;;;;;13.23;8.73;;;7.90;99.90;;;;;;5028206;28;20049;-44
2021/05/08 06:48:28;;;;;;;13.02;8.43;;;7.90;99.90;;;;;;5026902;28;20021;-46
2021/05/08 06:50:53;;;;;;;18.45;9.75;;;8.00;99.90;;;;;;5027900;28;20025;-46
2021/05/08 06:53:19;;;;;;;16.63;9.50;;;8.10;99.90;;;;;;5028302;28;20064;-47
2021/05/08 06:55:44;;;;;;;14.10;10.43;;;8.20;99.90;;;;;;5027628;28;20030;-44
2021/05/08 06:58:10;;;;;;;12.70;9.57;;;8.20;99.90;;;;;;5027256;28;20491;-45
2021/05/08 07:00:35;;;;;;;18.88;10.88;;;8.30;99.90;;;;;;5025681;28;20016;-46
2021/05/08 07:03:01;;;;;;;18.38;10.25;;;8.30;99.90;;;;;;5026488;28;20112;-45
2021/05/08 07:05:28;;;;;;;16.27;9.18;;;8.50;99.90;;;;;;5024532;28;20265;-46
2021/05/08 07:08:05;;;;;;;14.82;9.35;;;8.50;99.90;;;;;;5025601;28;20025;-43
2021/05/08 07:10:31;;;;;;;15.15;9.10;;;8.50;99.90;;;;;;5026399;28;20637;-45
2021/05/08 07:12:57;;;;;;;12.25;9.02;;;8.60;99.90;;;;;;5025869;28;20113;-46
2021/05/08 07:15:23;;;;;;;14.30;9.23;;;8.60;99.90;;;;;;5027424;28;20040;-45
2021/05/08 07:18:00;;;;;;;12.77;8.07;;;8.80;99.90;;;;;;5031025;28;20060;-45
2021/05/08 07:20:25;;;;;;;15.35;8.00;;;8.90;99.90;;;;;;5030005;28;20446;-45
2021/05/08 07:22:51;;;;;;;14.07;8.68;;;9.00;99.90;;;;;;5029496;28;20221;-44
2021/05/08 07:25:17;;;;;;;12.75;7.68;;;9.00;99.90;;;;;;5029004;28;20025;-45
2021/05/08 07:27:42;;;;;;;12.35;7.47;;;9.10;99.90;;;;;;5029455;28;20036;-45
2021/05/08 07:30:08;;;;;;;11.65;6.43;;;9.20;99.90;;;;;;5021035;28;20017;-45
2021/05/08 07:32:35;;;;;;;13.15;7.25;;;9.20;99.90;;;;;;5024380;28;20129;-45
2021/05/08 07:35:00;;;;;;;11.60;7.28;;;9.30;99.90;;;;;;5029984;28;20049;-43
2021/05/08 07:37:26;;;;;;;10.95;7.60;;;9.50;99.90;;;;;;5030119;28;20080;-44
2021/05/08 07:39:51;;;;;;;10.80;7.47;;;9.50;99.90;;;;;;5030181;28;20053;-44
2021/05/08 07:42:17;;;;;;;12.30;7.07;;;9.70;99.90;;;;;;5030573;28;20032;-45
2021/05/08 07:44:42;;;;;;;12.75;6.93;;;9.80;99.90;;;;;;5030678;28;20023;-46
2021/05/08 07:47:08;;;;;;;8.90;7.28;;;9.90;99.90;;;;;;5028387;28;20511;-44
2021/05/08 07:49:33;;;;;;;10.38;7.50;;;10.00;99.90;;;;;;5029769;28;20441;-44
2021/05/08 07:51:59;;;;;;;11.40;7.53;;;10.20;99.90;;;;;;5029986;28;20418;-44
2021/05/08 07:54:24;;;;;;;12.75;8.13;;;10.60;99.80;;;;;;5029807;28;20033;-45
2021/05/08 07:56:50;;;;;;;13.60;8.27;;;10.80;98.40;;;;;;5030506;28;20082;-46
2021/05/08 07:59:15;;;;;;;11.30;7.95;;;10.90;97.70;;;;;;5028609;28;20052;-45
2021/05/08 08:01:41;;;;;;;11.38;7.88;;;10.90;97.70;;;;;;5029356;28;20076;-45
2021/05/08 08:04:06;;;;;;;12.55;7.75;;;11.10;96.40;;;;;;5029443;28;20025;-45
2021/05/08 08:06:32;;;;;;;11.57;8.15;;;10.90;96.50;;;;;;5028333;28;20029;-47
2021/05/08 08:08:57;;;;;;;10.10;7.10;;;11.10;96.00;;;;;;5028231;28;20022;-46
2021/05/08 08:11:23;;;;;;;13.65;8.30;;;11.40;95.70;;;;;;5029834;28;21603;-45
2021/05/08 08:13:49;;;;;;;9.98;7.20;;;11.70;95.50;;;;;;5026657;28;20025;-45
2021/05/08 08:16:15;;;;;;;11.45;7.45;;;12.10;94.40;;;;;;5029041;28;20084;-45
2021/05/08 08:18:40;;;;;;;9.57;6.25;;;12.30;91.50;;;;;;5028699;28;20034;-45
2021/05/08 08:21:06;;;;;;;10.40;7.28;;;12.60;93.80;;;;;;5028955;28;20097;-44
2021/05/08 08:23:31;;;;;;;11.00;6.80;;;12.80;86.60;;;;;;5029750;28;20032;-45
2021/05/08 08:25:57;;;;;;;7.40;5.90;;;13.20;88.20;;;;;;5028522;28;20025;-45
2021/05/08 08:28:22;;;;;;;6.18;4.45;;;13.90;85.40;;;;;;5028078;28;20044;-45
2021/05/08 08:30:48;;;;;;;7.30;5.10;;;14.90;78.80;;;;;;5028705;28;20079;-46
2021/05/08 08:33:14;;;;;;;6.65;4.85;;;15.90;70.90;;;;;;5028859;28;20561;-45
2021/05/08 08:35:39;;;;;;;8.13;5.15;;;17.10;63.80;;;;;;5029199;28;20107;-45
2021/05/08 08:38:06;;;;;;;6.47;5.03;;;18.40;55.90;;;;;;5028014;28;20029;-44
2021/05/08 08:40:31;;;;;;;10.13;5.78;;;19.20;51.50;;;;;;5026529;28;20072;-46
2021/05/08 08:42:57;;;;;;;8.13;4.85;;;18.60;50.80;;;;;;5026607;28;20524;-45
2021/05/08 08:45:23;;;;;;;6.85;4.10;;;18.80;51.50;;;;;;5027600;28;20034;-46
2021/05/08 08:47:48;;;;;;;6.05;4.07;;;20.40;48.20;;;;;;5026400;28;20617;-45
2021/05/08 08:50:15;;;;;;;7.85;5.85;;;20.70;49.50;;;;;;5026750;28;20034;-46
2021/05/08 08:52:41;;;;;;;8.95;4.15;;;20.30;45.50;;;;;;5028644;28;20775;-46
2021/05/08 08:55:09;;;;;;;4.88;4.35;;;20.60;45.70;;;;;;5028474;28;20025;-45
2021/05/08 08:57:39;;;;;;;6.53;4.00;;;21.10;47.10;;;;;;5027742;28;20120;-48
2021/05/08 09:00:12;;;;;;;6.78;4.03;;;21.30;47.10;;;;;;5027836;28;20063;-46
2021/05/08 09:02:38;;;;;;;8.05;4.15;;;22.20;43.60;;;;;;5028649;28;20480;-45
2021/05/08 09:05:05;;;;;;;4.85;3.60;;;23.30;41.60;;;;;;5027303;28;20108;-47
2021/05/08 09:07:31;;;;;;;5.70;4.10;;;23.90;38.60;;;;;;5027645;28;20061;-46
2021/05/08 09:09:57;;;;;;;3.92;3.50;;;23.60;38.30;;;;;;5028056;28;20079;-46
2021/05/08 09:12:28;;;;;;;4.65;3.55;;;23.50;40.10;;;;;;5027764;28;20022;-47
2021/05/08 09:14:54;;;;;;;3.47;3.17;;;23.40;41.60;;;;;;5027691;28;20056;-46
2021/05/08 09:17:22;;;;;;;6.13;4.10;;;23.50;41.00;;;;;;5028052;28;20017;-48
2021/05/08 09:19:58;;;;;;;4.28;3.58;;;23.00;40.70;;;;;;5027720;28;20029;-48
2021/05/08 09:22:38;;;;;;;5.03;3.00;;;22.40;40.10;;;;;;5028796;28;20025;-45
2021/05/08 09:25:17;;;;;;;5.50;3.55;;;22.30;40.40;;;;;;5027972;28;20029;-47
2021/05/08 09:27:44;;;;;;;5.10;4.47;;;21.90;42.30;;;;;;5027309;28;20034;-49
2021/05/08 09:30:14;;;;;;;5.25;4.20;;;22.20;43.30;;;;;;5027312;28;20433;-48
2021/05/08 09:32:42;;;;;;;5.70;3.13;;;22.50;41.70;;;;;;5027560;28;20079;-47
2021/05/08 09:35:14;;;;;;;6.38;4.03;;;22.10;42.50;;;;;;5026200;28;20116;-48
2021/05/08 09:37:40;;;;;;;4.22;3.45;;;22.50;44.20;;;;;;5027430;28;20037;-46
2021/05/08 09:40:20;;;;;;;5.57;3.78;;;23.30;41.60;;;;;;5026716;28;20491;-46
2021/05/08 09:42:51;;;;;;;4.03;3.45;;;23.40;37.90;;;;;;5023844;28;20091;-46
2021/05/08 09:45:18;;;;;;;3.85;3.38;;;23.40;39.80;;;;;;5027498;28;20029;-45
2021/05/08 09:47:44;;;;;;;5.30;4.10;;;23.90;40.10;;;;;;5026486;28;20115;-46
2021/05/08 09:50:10;;;;;;;5.13;4.20;;;24.00;40.40;;;;;;5028277;28;20406;-46
2021/05/08 09:52:46;;;;;;;5.38;4.18;;;23.20;38.30;;;;;;5027984;28;20076;-46
2021/05/08 09:55:13;;;;;;;5.85;3.55;;;22.80;38.90;;;;;;5027347;28;20028;-46
2021/05/08 09:57:39;;;;;;;4.40;3.92;;;23.30;38.50;;;;;;5027531;28;20021;-46
2021/05/08 10:00:25;;;;;;;6.43;3.40;;;24.30;37.70;;;;;;5027557;28;20133;-46
2021/05/08 10:03:00;;;;;;;4.40;4.00;;;24.50;38.50;;;;;;5027478;28;20033;-46
2021/05/08 10:05:26;;;;;;;5.32;3.00;;;25.00;34.70;;;;;;5028012;28;20025;-47
2021/05/08 10:07:51;;;;;;;3.80;3.28;;;24.80;36.50;;;;;;5027073;28;20033;-47
2021/05/08 10:10:19;;;;;;;4.82;3.40;;;24.90;35.30;;;;;;5044892;28;20033;-45
2021/05/08 10:12:45;;;;;;;4.20;3.20;;;25.60;35.30;;;;;;5047880;28;20025;-47
2021/05/08 10:15:11;;;;;;;10.23;3.95;;;25.20;36.00;;;;;;5047549;28;20095;-46
2021/05/08 10:17:38;;;;;;;5.15;3.15;;;24.30;35.00;;;;;;5047039;28;20063;-47
2021/05/08 10:20:09;;;;;;;4.03;2.80;;;24.70;32.80;;;;;;5047552;28;20025;-47
2021/05/08 10:22:58;;;;;;;4.78;2.78;;;25.70;31.50;;;;;;5047469;28;20017;-45
2021/05/08 10:25:24;;;;;;;2.90;2.53;;;25.40;32.40;;;;;;5047591;28;20021;-47
2021/05/08 10:27:50;;;;;;;2.50;2.20;;;24.90;35.20;;;;;;5045491;28;20029;-44
2021/05/08 10:30:30;;;;;;;4.50;2.60;;;25.30;35.00;;;;;;5047638;28;20044;-46
2021/05/08 10:32:58;;;;;;;3.20;2.65;;;24.80;30.70;;;;;;5047303;28;20033;-48
2021/05/08 10:35:45;;;;;;;5.47;2.47;;;24.90;34.10;;;;;;5047517;28;20021;-45
2021/05/08 10:38:13;;;;;;;3.90;2.67;;;25.80;33.30;;;;;;5046448;28;20025;-47
2021/05/08 10:40:55;;;;;;;4.38;2.50;;;25.60;29.60;;;;;;5047653;28;20029;-47
2021/05/08 10:43:43;;;;;;;4.10;2.95;;;25.70;29.70;;;;;;5047638;28;20144;-47
2021/05/08 10:46:10;;;;;;;3.38;2.97;;;25.90;32.20;;;;;;5047410;28;20052;-47
2021/05/08 10:48:36;;;;;;;3.50;2.67;;;25.50;31.60;;;;;;5047007;28;20029;-46
2021/05/08 10:51:02;;;;;;;3.17;2.85;;;23.90;32.70;;;;;;5047244;28;20121;-45
2021/05/08 10:53:39;;;;;;;4.50;2.65;;;22.30;32.40;;;;;;5050826;28;20169;-45
2021/05/08 10:56:05;;;;;;;4.20;3.03;;;23.20;33.40;;;;;;5051030;28;20113;-45
2021/05/08 10:58:33;;;;;;;3.78;2.83;;;23.10;31.40;;;;;;5050257;28;20104;-48
2021/05/08 11:01:05;;;;;;;4.85;3.25;;;24.00;33.20;;;;;;5032998;28;20025;-46
2021/05/08 11:03:53;;;;;;;4.35;2.63;;;24.30;31.40;;;;;;5030909;28;20060;-47
2021/05/08 11:06:19;;;;;;;4.22;2.90;;;24.10;34.60;;;;;;5030839;28;20073;-45
2021/05/08 11:08:51;;;;;;;4.32;3.90;;;23.30;34.10;;;;;;5029823;28;20038;-46
2021/05/08 11:11:22;;;;;;;5.57;3.08;;;23.10;33.40;;;;;;5030260;28;20034;-45
2021/05/08 11:13:53;;;;;;;5.05;3.67;;;22.50;35.60;;;;;;5048295;28;20382;-46
2021/05/08 11:16:24;;;;;;;4.18;3.53;;;22.40;34.80;;;;;;5050730;28;20094;-46
2021/05/08 11:18:54;;;;;;;6.93;3.97;;;21.50;35.50;;;;;;5049190;28;20541;-44
2021/05/08 11:21:21;;;;;;;6.80;4.20;;;21.30;36.90;;;;;;5048617;28;20106;-45
2021/05/08 11:23:52;;;;;;;5.43;4.50;;;21.00;38.00;;;;;;5049925;28;20115;-44
2021/05/08 11:28:55;;;;;;;8.57;6.07;;;20.00;39.40;;;;;;5049440;28;20035;-45
2021/05/08 11:31:30;;;;;;;7.13;5.85;;;20.30;37.00;;;;;;5049021;28;20041;-47
2021/05/08 11:34:13;;;;;;;6.25;4.93;;;21.40;38.30;;;;;;5050604;28;20120;-46
2021/05/08 11:36:42;;;;;;;8.75;5.93;;;22.50;37.10;;;;;;5050517;28;20130;-46
2021/05/08 11:39:10;;;;;;;6.85;6.00;;;22.40;35.80;;;;;;5049618;28;20021;-45
2021/05/08 11:41:36;;;;;;;8.25;5.60;;;22.70;34.10;;;;;;5050527;28;20029;-46
2021/05/08 11:44:01;;;;;;;6.63;5.40;;;23.10;35.00;;;;;;5050209;28;20025;-47
2021/05/08 11:46:28;;;;;;;6.90;5.10;;;23.90;32.80;;;;;;5050532;28;20024;-46
2021/05/08 11:48:54;;;;;;;7.82;6.38;;;22.70;33.40;;;;;;5047935;28;20658;-47
2021/05/08 11:51:19;;;;;;;8.27;6.20;;;21.10;34.60;;;;;;5036909;28;20112;-45
2021/05/08 11:54:07;;;;;;;4.32;3.83;;;20.60;35.90;;;;;;5030293;28;20487;-47
2021/05/08 11:56:33;;;;;;;9.40;6.70;;;20.80;39.90;;;;;;5030322;28;20036;-45
2021/05/08 11:59:01;;;;;;;7.50;5.53;;;18.80;37.60;;;;;;5029116;28;20044;-45
2021/05/08 12:01:29;;;;;;;6.47;5.30;;;18.90;40.20;;;;;;5030233;28;20025;-44
2021/05/08 12:03:56;;;;;;;7.75;5.20;;;18.90;40.30;;;;;;5027807;28;20041;-45
2021/05/08 12:06:22;;;;;;;5.95;5.32;;;19.10;42.30;;;;;;5028748;28;20172;-45
2021/05/08 12:08:47;;;;;;;8.10;5.05;;;19.00;40.50;;;;;;5027061;28;20414;-46
2021/05/08 12:11:17;;;;;;;9.60;5.95;;;19.40;40.70;;;;;;5028877;28;20029;-44
2021/05/08 12:13:43;;;;;;;6.50;4.70;;;19.10;40.80;;;;;;5029939;28;20025;-48
2021/05/08 12:16:09;;;;;;;9.00;6.45;;;19.40;40.70;;;;;;5030116;28;20372;-45
2021/05/08 12:18:36;;;;;;;8.65;5.60;;;18.50;39.60;;;;;;5028179;28;20506;-46
2021/05/08 12:21:02;;;;;;;8.70;5.72;;;18.40;40.90;;;;;;5029758;28;20018;-45
2021/05/08 12:23:28;;;;;;;6.68;5.30;;;18.30;40.00;;;;;;5029937;28;20096;-46
2021/05/08 12:26:09;;;;;;;6.47;4.90;;;17.90;42.20;;;;;;5028174;28;20022;-45
2021/05/08 12:28:37;;;;;;;7.40;5.80;;;17.80;42.20;;;;;;5029133;28;20136;-44
2021/05/08 12:31:21;;;;;;;7.20;5.10;;;17.70;42.70;;;;;;5029738;28;20037;-46
2021/05/08 12:33:49;;;;;;;11.70;6.60;;;17.80;42.60;;;;;;5027588;28;20025;-45
2021/05/08 12:36:16;;;;;;;10.13;4.95;;;17.60;44.50;;;;;;5028324;28;20026;-44
2021/05/08 12:38:42;;;;;;;7.82;5.20;;;17.70;41.90;;;;;;5027673;28;20613;-48
2021/05/08 12:41:35;;;;;;;10.20;6.13;;;17.70;45.70;;;;;;5027976;28;20391;-46
2021/05/08 12:44:09;;;;;;;7.30;5.45;;;18.40;42.50;;;;;;5026900;28;20021;-45
2021/05/08 12:47:23;;;;;;;8.02;5.72;;;18.60;40.90;;;;;;5027723;28;20021;-45
2021/05/08 12:50:12;;;;;;;8.27;5.22;;;18.10;42.50;;;;;;5026871;28;20032;-45
2021/05/08 12:52:39;;;;;;;6.80;5.80;;;18.10;41.80;;;;;;5026724;28;20661;-45